JBU461 KLGA-KPBI
Flight info
| Callsign | JBU461 |
|---|---|
| Flight time | N/A |
| Altitude | 36000 |
| Route | WHITE Q409 CRPLR EARZZ Q131 WAALT Y289 DULEE CLMNT2 |
| Aircraft | A320/M-SDE3FGHIRWY/LB1 |
Departure
| Time | N/A |
|---|---|
| Airport | LaGuardia Airport (KLGA) |
Arrival
| Time | 2026-05-06 00:03 |
|---|---|
| Airport | Palm Beach International Airport (KPBI) |
| Time | Latitude | Longitude | Altitude | Speed | Heading |
|---|---|---|---|---|---|
| 2026-05-05 23:03 | 32.32429 | -78.36019 | 36098 ft | 475 kts | 205° |
| 2026-05-05 23:03 | 32.29246 | -78.37067 | 36109 ft | 475 kts | 205° |
| 2026-05-05 23:03 | 32.22905 | -78.39153 | 36119 ft | 474 kts | 205° |
| 2026-05-05 23:04 | 32.16535 | -78.41245 | 36121 ft | 474 kts | 205° |
| 2026-05-05 23:04 | 32.10170 | -78.43321 | 36122 ft | 474 kts | 205° |
| 2026-05-05 23:05 | 32.03853 | -78.45381 | 36095 ft | 473 kts | 205° |
| 2026-05-05 23:05 | 31.97488 | -78.47458 | 36109 ft | 473 kts | 205° |
| 2026-05-05 23:06 | 31.91173 | -78.49526 | 36117 ft | 473 kts | 205° |
| 2026-05-05 23:06 | 31.84815 | -78.51593 | 36122 ft | 473 kts | 205° |
| 2026-05-05 23:07 | 31.78451 | -78.53665 | 36112 ft | 473 kts | 205° |
| 2026-05-05 23:07 | 31.72131 | -78.55712 | 36119 ft | 473 kts | 205° |
| 2026-05-05 23:08 | 31.65770 | -78.57773 | 36119 ft | 473 kts | 205° |
| 2026-05-05 23:08 | 31.59458 | -78.59825 | 36115 ft | 473 kts | 205° |
| 2026-05-05 23:09 | 31.53104 | -78.61888 | 36088 ft | 473 kts | 205° |
| 2026-05-05 23:09 | 31.46787 | -78.64019 | 36104 ft | 471 kts | 206° |
| 2026-05-05 23:10 | 31.40530 | -78.66192 | 36116 ft | 471 kts | 206° |
| 2026-05-05 23:10 | 31.34226 | -78.68375 | 36112 ft | 471 kts | 206° |
| 2026-05-05 23:11 | 31.27942 | -78.70529 | 36094 ft | 470 kts | 205° |
| 2026-05-05 23:11 | 31.21636 | -78.72675 | 36108 ft | 470 kts | 205° |
| 2026-05-05 23:12 | 31.15382 | -78.74793 | 36109 ft | 470 kts | 205° |
| 2026-05-05 23:12 | 31.09117 | -78.76921 | 36110 ft | 469 kts | 205° |
| 2026-05-05 23:13 | 31.02841 | -78.79053 | 36086 ft | 469 kts | 205° |
| 2026-05-05 23:13 | 30.96558 | -78.81187 | 36098 ft | 469 kts | 205° |
| 2026-05-05 23:14 | 30.90290 | -78.83314 | 36105 ft | 469 kts | 205° |
| 2026-05-05 23:14 | 30.84051 | -78.85416 | 36109 ft | 469 kts | 205° |
| 2026-05-05 23:15 | 30.77760 | -78.87540 | 36106 ft | 469 kts | 205° |
| 2026-05-05 23:15 | 30.71512 | -78.89644 | 36082 ft | 469 kts | 205° |
| 2026-05-05 23:16 | 30.65231 | -78.91768 | 36097 ft | 469 kts | 205° |
| 2026-05-05 23:16 | 30.59002 | -78.93868 | 36102 ft | 468 kts | 205° |
| 2026-05-05 23:17 | 30.52736 | -78.95982 | 36112 ft | 468 kts | 205° |
| 2026-05-05 23:17 | 30.46462 | -78.98078 | 36093 ft | 468 kts | 205° |
| 2026-05-05 23:18 | 30.40203 | -79.00124 | 36099 ft | 470 kts | 203° |
| 2026-05-05 23:18 | 30.33807 | -79.01854 | 36103 ft | 472 kts | 200° |
| 2026-05-05 23:19 | 30.27366 | -79.03418 | 36107 ft | 472 kts | 200° |
| 2026-05-05 23:19 | 30.20972 | -79.05026 | 36105 ft | 471 kts | 201° |
| 2026-05-05 23:20 | 30.14554 | -79.06709 | 36090 ft | 472 kts | 201° |
| 2026-05-05 23:20 | 30.08189 | -79.08397 | 36089 ft | 472 kts | 201° |
| 2026-05-05 23:21 | 30.01756 | -79.10085 | 36089 ft | 473 kts | 201° |
| 2026-05-05 23:21 | 29.95322 | -79.11750 | 36089 ft | 473 kts | 201° |
| 2026-05-05 23:22 | 29.88922 | -79.13415 | 36069 ft | 473 kts | 201° |
| 2026-05-05 23:22 | 29.82484 | -79.15081 | 36076 ft | 474 kts | 201° |
| 2026-05-05 23:23 | 29.76028 | -79.16731 | 36080 ft | 475 kts | 200° |
| 2026-05-05 23:23 | 29.69563 | -79.18366 | 36083 ft | 475 kts | 200° |
| 2026-05-05 23:24 | 29.63144 | -79.20002 | 36064 ft | 475 kts | 201° |
| 2026-05-05 23:24 | 29.56688 | -79.21650 | 36068 ft | 475 kts | 201° |
| 2026-05-05 23:25 | 29.51303 | -79.23022 | 36064 ft | 475 kts | 201° |
| 2026-05-05 23:25 | 29.44829 | -79.24670 | 36076 ft | 476 kts | 201° |
| 2026-05-05 23:26 | 29.38382 | -79.26312 | 36058 ft | 476 kts | 201° |
| 2026-05-05 23:26 | 29.31889 | -79.27954 | 36067 ft | 476 kts | 201° |
| 2026-05-05 23:27 | 29.25418 | -79.29581 | 36080 ft | 476 kts | 201° |
| 2026-05-05 23:27 | 29.18990 | -79.31212 | 36084 ft | 476 kts | 201° |
| 2026-05-05 23:28 | 29.12508 | -79.32843 | 36087 ft | 476 kts | 201° |
| 2026-05-05 23:28 | 29.06039 | -79.34471 | 36066 ft | 475 kts | 201° |
| 2026-05-05 23:29 | 28.99593 | -79.36091 | 36074 ft | 476 kts | 201° |
| 2026-05-05 23:29 | 28.93111 | -79.37710 | 36083 ft | 475 kts | 201° |
| 2026-05-05 23:30 | 28.86684 | -79.39327 | 36084 ft | 475 kts | 201° |
| 2026-05-05 23:30 | 28.80217 | -79.40955 | 36066 ft | 475 kts | 202° |
| 2026-05-05 23:31 | 28.73763 | -79.42567 | 35804 ft | 473 kts | 201° |
| 2026-05-05 23:31 | 28.70554 | -79.43364 | 35311 ft | 471 kts | 201° |
| 2026-05-05 23:31 | 28.67360 | -79.44161 | 34822 ft | 470 kts | 201° |
| 2026-05-05 23:32 | 28.64200 | -79.44953 | 34316 ft | 469 kts | 201° |
| 2026-05-05 23:32 | 28.60989 | -79.45758 | 33763 ft | 469 kts | 201° |
| 2026-05-05 23:32 | 28.57800 | -79.46558 | 33238 ft | 467 kts | 201° |
| 2026-05-05 23:32 | 28.54673 | -79.47340 | 32712 ft | 465 kts | 200° |
| 2026-05-05 23:33 | 28.51514 | -79.48127 | 32229 ft | 461 kts | 200° |
| 2026-05-05 23:33 | 28.48384 | -79.48908 | 31726 ft | 459 kts | 200° |
| 2026-05-05 23:33 | 28.45264 | -79.49681 | 31234 ft | 457 kts | 200° |
| 2026-05-05 23:33 | 28.42188 | -79.50441 | 30751 ft | 454 kts | 199° |
| 2026-05-05 23:34 | 28.39110 | -79.51200 | 30286 ft | 451 kts | 199° |
| 2026-05-05 23:34 | 28.36047 | -79.51961 | 29767 ft | 448 kts | 199° |
| 2026-05-05 23:34 | 28.33008 | -79.52717 | 29324 ft | 443 kts | 199° |
| 2026-05-05 23:34 | 28.30008 | -79.53463 | 28880 ft | 439 kts | 199° |
| 2026-05-05 23:35 | 28.27044 | -79.54224 | 28486 ft | 433 kts | 200° |
| 2026-05-05 23:35 | 28.24159 | -79.55003 | 28074 ft | 427 kts | 201° |
| 2026-05-05 23:35 | 28.21292 | -79.55799 | 27674 ft | 422 kts | 201° |
| 2026-05-05 23:35 | 28.18438 | -79.56598 | 27264 ft | 418 kts | 201° |
| 2026-05-05 23:36 | 28.15610 | -79.57386 | 26850 ft | 415 kts | 201° |
| 2026-05-05 23:36 | 28.12842 | -79.58151 | 26430 ft | 413 kts | 200° |
| 2026-05-05 23:36 | 28.10057 | -79.58911 | 26017 ft | 411 kts | 200° |
| 2026-05-05 23:36 | 28.07277 | -79.59665 | 25571 ft | 409 kts | 200° |
| 2026-05-05 23:37 | 28.04513 | -79.60411 | 25139 ft | 408 kts | 200° |
| 2026-05-05 23:37 | 28.01749 | -79.61158 | 24697 ft | 407 kts | 200° |
| 2026-05-05 23:37 | 27.99014 | -79.61898 | 24299 ft | 403 kts | 200° |
| 2026-05-05 23:37 | 27.96284 | -79.62639 | 23951 ft | 399 kts | 200° |
| 2026-05-05 23:38 | 27.93603 | -79.63364 | 23372 ft | 394 kts | 200° |
| 2026-05-05 23:38 | 27.90981 | -79.64075 | 22704 ft | 390 kts | 200° |
| 2026-05-05 23:38 | 27.88370 | -79.64780 | 22200 ft | 381 kts | 199° |
| 2026-05-05 23:38 | 27.85813 | -79.65468 | 21720 ft | 373 kts | 199° |
| 2026-05-05 23:39 | 27.83309 | -79.66144 | 21254 ft | 366 kts | 199° |
| 2026-05-05 23:39 | 27.80852 | -79.66810 | 20788 ft | 359 kts | 199° |
| 2026-05-05 23:39 | 27.78437 | -79.67467 | 20341 ft | 354 kts | 199° |
| 2026-05-05 23:39 | 27.76078 | -79.68108 | 19898 ft | 351 kts | 199° |
| 2026-05-05 23:40 | 27.73697 | -79.68752 | 19450 ft | 350 kts | 199° |
| 2026-05-05 23:40 | 27.71313 | -79.69398 | 19014 ft | 351 kts | 198° |
| 2026-05-05 23:40 | 27.68953 | -79.70037 | 18560 ft | 352 kts | 198° |
| 2026-05-05 23:40 | 27.66564 | -79.70683 | 18068 ft | 353 kts | 198° |
| 2026-05-05 23:41 | 27.64167 | -79.71327 | 17572 ft | 353 kts | 198° |
| 2026-05-05 23:41 | 27.61799 | -79.71962 | 17115 ft | 353 kts | 198° |
| 2026-05-05 23:41 | 27.59414 | -79.72606 | 16667 ft | 351 kts | 198° |
| 2026-05-05 23:41 | 27.57032 | -79.73250 | 16225 ft | 350 kts | 197° |
| 2026-05-05 23:42 | 27.54658 | -79.73887 | 15775 ft | 349 kts | 197° |
| 2026-05-05 23:42 | 27.52292 | -79.74523 | 15334 ft | 348 kts | 197° |
| 2026-05-05 23:42 | 27.49962 | -79.75149 | 14914 ft | 347 kts | 197° |
| 2026-05-05 23:42 | 27.47629 | -79.75777 | 14499 ft | 345 kts | 197° |
| 2026-05-05 23:43 | 27.45305 | -79.76401 | 14176 ft | 340 kts | 197° |
| 2026-05-05 23:43 | 27.43002 | -79.77018 | 13604 ft | 337 kts | 197° |
| 2026-05-05 23:43 | 27.40760 | -79.77618 | 13120 ft | 330 kts | 197° |
| 2026-05-05 23:43 | 27.38550 | -79.78206 | 12705 ft | 322 kts | 197° |
| 2026-05-05 23:44 | 27.36389 | -79.78781 | 12303 ft | 315 kts | 197° |
| 2026-05-05 23:44 | 27.34280 | -79.79346 | 11908 ft | 309 kts | 197° |
| 2026-05-05 23:44 | 27.32206 | -79.79903 | 11521 ft | 303 kts | 197° |
| 2026-05-05 23:44 | 27.30163 | -79.80451 | 11137 ft | 300 kts | 197° |
| 2026-05-05 23:45 | 27.28135 | -79.80995 | 10747 ft | 298 kts | 197° |
| 2026-05-05 23:45 | 27.26130 | -79.81531 | 10379 ft | 295 kts | 197° |
| 2026-05-05 23:45 | 27.24161 | -79.82058 | 10014 ft | 294 kts | 197° |
| 2026-05-05 23:45 | 27.22163 | -79.82595 | 9609 ft | 295 kts | 197° |
| 2026-05-05 23:46 | 27.20237 | -79.83345 | 9255 ft | 289 kts | 209° |
| 2026-05-05 23:46 | 27.18460 | -79.84398 | 8914 ft | 287 kts | 211° |
| 2026-05-05 23:46 | 27.16695 | -79.85454 | 8531 ft | 287 kts | 211° |
| 2026-05-05 23:46 | 27.14935 | -79.86503 | 8194 ft | 286 kts | 211° |
| 2026-05-05 23:47 | 27.13200 | -79.87537 | 7851 ft | 285 kts | 211° |
| 2026-05-05 23:47 | 27.11458 | -79.88576 | 7591 ft | 281 kts | 210° |
| 2026-05-05 23:47 | 27.09729 | -79.89608 | 7244 ft | 281 kts | 210° |
| 2026-05-05 23:47 | 27.08004 | -79.90636 | 6911 ft | 280 kts | 211° |
| 2026-05-05 23:48 | 27.06288 | -79.91654 | 6613 ft | 278 kts | 210° |
| 2026-05-05 23:48 | 27.04579 | -79.92670 | 6276 ft | 278 kts | 210° |
| 2026-05-05 23:48 | 27.02869 | -79.93688 | 5902 ft | 278 kts | 210° |
| 2026-05-05 23:48 | 27.01158 | -79.94707 | 5536 ft | 278 kts | 209° |
| 2026-05-05 23:49 | 26.99463 | -79.95714 | 5180 ft | 279 kts | 209° |
| 2026-05-05 23:49 | 26.97742 | -79.96735 | 4829 ft | 279 kts | 208° |
| 2026-05-05 23:49 | 26.96025 | -79.97754 | 4448 ft | 280 kts | 208° |
| 2026-05-05 23:49 | 26.94387 | -79.98943 | 4108 ft | 280 kts | 218° |
| 2026-05-05 23:50 | 26.92862 | -80.00267 | 3997 ft | 274 kts | 218° |
| 2026-05-05 23:50 | 26.91365 | -80.01560 | 4003 ft | 275 kts | 218° |
| 2026-05-05 23:50 | 26.89839 | -80.02874 | 4005 ft | 277 kts | 217° |
| 2026-05-05 23:50 | 26.88313 | -80.04183 | 4004 ft | 276 kts | 217° |
| 2026-05-05 23:51 | 26.86785 | -80.05496 | 4007 ft | 275 kts | 217° |
| 2026-05-05 23:51 | 26.85265 | -80.06803 | 4005 ft | 275 kts | 217° |
| 2026-05-05 23:51 | 26.83781 | -80.08080 | 4005 ft | 262 kts | 218° |
| 2026-05-05 23:51 | 26.82365 | -80.09313 | 4007 ft | 255 kts | 218° |
| 2026-05-05 23:52 | 26.81165 | -80.10751 | 4006 ft | 253 kts | 240° |
| 2026-05-05 23:52 | 26.80535 | -80.12545 | 4007 ft | 251 kts | 262° |
| 2026-05-05 23:52 | 26.80381 | -80.14499 | 4006 ft | 253 kts | 268° |
| 2026-05-05 23:52 | 26.80250 | -80.16452 | 4005 ft | 252 kts | 267° |
| 2026-05-05 23:53 | 26.80099 | -80.18406 | 4007 ft | 250 kts | 265° |
| 2026-05-05 23:53 | 26.79933 | -80.20340 | 4001 ft | 250 kts | 265° |
| 2026-05-05 23:53 | 26.79753 | -80.22277 | 4005 ft | 250 kts | 264° |
| 2026-05-05 23:53 | 26.79563 | -80.24217 | 4007 ft | 250 kts | 264° |
| 2026-05-05 23:54 | 26.79367 | -80.26137 | 3989 ft | 242 kts | 264° |
| 2026-05-05 23:54 | 26.79175 | -80.27978 | 3863 ft | 234 kts | 264° |
| 2026-05-05 23:54 | 26.78993 | -80.29739 | 3665 ft | 229 kts | 264° |
| 2026-05-05 23:54 | 26.78810 | -80.31520 | 3291 ft | 232 kts | 264° |
| 2026-05-05 23:55 | 26.78627 | -80.33328 | 3033 ft | 233 kts | 264° |
| 2026-05-05 23:55 | 26.78443 | -80.35134 | 2991 ft | 234 kts | 264° |
| 2026-05-05 23:55 | 26.78256 | -80.36955 | 2992 ft | 237 kts | 264° |
| 2026-05-05 23:55 | 26.77878 | -80.38720 | 2994 ft | 234 kts | 240° |
| 2026-05-05 23:56 | 26.76778 | -80.40015 | 2996 ft | 232 kts | 208° |
| 2026-05-05 23:56 | 26.75272 | -80.40656 | 2999 ft | 232 kts | 195° |
| 2026-05-05 23:56 | 26.73713 | -80.41152 | 3002 ft | 233 kts | 191° |
| 2026-05-05 23:56 | 26.72124 | -80.41173 | 3001 ft | 227 kts | 164° |
| 2026-05-05 23:57 | 26.70727 | -80.40427 | 3004 ft | 222 kts | 137° |
| 2026-05-05 23:57 | 26.69786 | -80.39124 | 3005 ft | 217 kts | 112° |
| 2026-05-05 23:57 | 26.69446 | -80.37509 | 3005 ft | 213 kts | 91° |
| 2026-05-05 23:57 | 26.69380 | -80.35847 | 3007 ft | 213 kts | 91° |
| 2026-05-05 23:58 | 26.69313 | -80.34186 | 3007 ft | 214 kts | 91° |
| 2026-05-05 23:58 | 26.69243 | -80.32518 | 3005 ft | 215 kts | 91° |
| 2026-05-05 23:58 | 26.69174 | -80.30872 | 3011 ft | 215 kts | 91° |
| 2026-05-05 23:58 | 26.69104 | -80.29204 | 3006 ft | 213 kts | 91° |
| 2026-05-05 23:59 | 26.69034 | -80.27550 | 2894 ft | 212 kts | 92° |
| 2026-05-05 23:59 | 26.68964 | -80.25890 | 2655 ft | 211 kts | 92° |
| 2026-05-05 23:59 | 26.68895 | -80.24258 | 2390 ft | 209 kts | 91° |
| 2026-05-05 23:59 | 26.68827 | -80.22656 | 2119 ft | 208 kts | 91° |
| 2026-05-06 00:00 | 26.68760 | -80.21050 | 1841 ft | 201 kts | 91° |
| 2026-05-06 00:00 | 26.68696 | -80.19551 | 1602 ft | 187 kts | 92° |
| 2026-05-06 00:00 | 26.68636 | -80.18172 | 1375 ft | 171 kts | 91° |
| 2026-05-06 00:00 | 26.68580 | -80.16894 | 1148 ft | 157 kts | 91° |
| 2026-05-06 00:01 | 26.68529 | -80.15756 | 946 ft | 139 kts | 90° |
| 2026-05-06 00:01 | 26.68488 | -80.14689 | 792 ft | 135 kts | 89° |
| 2026-05-06 00:01 | 26.68444 | -80.13642 | 618 ft | 136 kts | 91° |
| 2026-05-06 00:01 | 26.68395 | -80.12574 | 424 ft | 135 kts | 89° |
| 2026-05-06 00:02 | 26.68350 | -80.11547 | 258 ft | 134 kts | 89° |
| 2026-05-06 00:02 | 26.68306 | -80.10506 | 54 ft | 133 kts | 88° |
| 2026-05-06 00:02 | 26.68268 | -80.09576 | 27 ft | 102 kts | 93° |
| 2026-05-06 00:02 | 26.68239 | -80.08974 | 26 ft | 53 kts | 92° |
| 2026-05-06 00:03 | 26.68238 | -80.08716 | 29 ft | 20 kts | 77° |
| 2026-05-06 00:03 | 26.68313 | -80.08656 | 29 ft | 12 kts | 332° |
| 2026-05-06 00:03 | 26.68378 | -80.08719 | 26 ft | 13 kts | 347° |
| 2026-05-06 00:03 | 26.68437 | -80.08775 | 29 ft | 13 kts | 276° |
| 2026-05-06 00:04 | 26.68442 | -80.08887 | 26 ft | 16 kts | 272° |
| 2026-05-06 00:04 | 26.68450 | -80.08975 | 30 ft | 10 kts | 291° |
| 2026-05-06 00:04 | 26.68483 | -80.08991 | 29 ft | 5 kts | 23° |
| 2026-05-06 00:04 | 26.68504 | -80.08978 | 30 ft | 3 kts | 25° |
| 2026-05-06 00:05 | 26.68520 | -80.08969 | 26 ft | 0 kts | 27° |